createdAt,value
2019-04-04T00:02:29.967Z,11.50
2019-04-04T00:05:02.419Z,11.36
2019-04-04T00:07:42.603Z,11.53
2019-04-04T00:10:15.410Z,11.38
2019-04-04T00:12:56.407Z,11.48
2019-04-04T00:15:28.555Z,11.46
2019-04-04T00:18:01.246Z,11.45
2019-04-04T00:20:33.500Z,11.55
2019-04-04T00:23:16.289Z,11.49
2019-04-04T00:25:48.397Z,11.54
2019-04-04T00:28:24.269Z,11.45
2019-04-04T00:30:56.110Z,11.46
2019-04-04T00:33:37.133Z,11.46
2019-04-04T00:36:09.053Z,11.52
2019-04-04T00:38:44.650Z,11.54
2019-04-04T00:41:16.376Z,11.52
2019-04-04T00:43:52.421Z,11.55
2019-04-04T00:46:24.195Z,11.58
2019-04-04T00:49:06.480Z,11.60
2019-04-04T00:51:39.146Z,11.55
2019-04-04T00:54:14.653Z,11.50
2019-04-04T00:56:46.918Z,11.52
2019-04-04T00:59:27.243Z,11.44
2019-04-04T01:01:59.036Z,11.46
2019-04-04T01:04:33.747Z,11.49
2019-04-04T01:07:06.014Z,11.50
2019-04-04T01:09:45.871Z,11.58
2019-04-04T01:12:21.416Z,11.55
2019-04-04T01:14:58.131Z,11.56
2019-04-04T01:17:30.128Z,11.55
2019-04-04T01:20:12.020Z,11.53
2019-04-04T01:22:43.700Z,11.57
2019-04-04T01:25:15.562Z,11.50
2019-04-04T01:27:47.288Z,11.58
2019-04-04T01:30:29.497Z,11.64
2019-04-04T01:33:03.564Z,11.52
2019-04-04T01:35:34.918Z,11.60
2019-04-04T01:38:06.534Z,11.53
2019-04-04T01:40:38.169Z,11.54
2019-04-04T01:43:09.966Z,11.57
2019-04-04T01:45:43.855Z,11.64
2019-04-04T01:48:18.275Z,11.56
2019-04-04T01:50:48.859Z,11.60
2019-04-04T01:53:21.336Z,11.68
2019-04-04T01:55:53.900Z,11.60
2019-04-04T01:58:26.441Z,11.59
2019-04-04T02:00:58.267Z,11.65
2019-04-04T02:03:29.957Z,11.59
2019-04-04T02:06:01.675Z,11.57
2019-04-04T02:08:33.595Z,11.58
2019-04-04T02:11:05.905Z,11.64
2019-04-04T02:13:38.933Z,11.68
2019-04-04T02:16:12.309Z,11.64
2019-04-04T02:18:44.145Z,11.62
2019-04-04T02:21:15.923Z,11.54
2019-04-04T02:23:48.166Z,11.43
2019-04-04T02:26:19.911Z,11.41
2019-04-04T02:28:51.603Z,11.35
2019-04-04T02:31:23.882Z,11.31
2019-04-04T02:33:56.161Z,11.35
2019-04-04T02:36:28.039Z,11.31
2019-04-04T02:39:15.324Z,11.33
2019-04-04T02:41:49.030Z,11.29
2019-04-04T02:44:21.383Z,11.29
2019-04-04T02:46:53.819Z,11.23
2019-04-04T02:49:27.904Z,11.29
2019-04-04T02:51:58.931Z,11.19
2019-04-04T02:54:30.646Z,11.19
2019-04-04T02:57:02.298Z,11.20
2019-04-04T02:59:33.830Z,11.23
2019-04-04T03:02:06.130Z,11.22
2019-04-04T03:04:38.015Z,11.22
2019-04-04T03:07:10.645Z,11.07
2019-04-04T03:09:43.697Z,11.04
2019-04-04T03:12:16.170Z,11.06
2019-04-04T03:14:50.569Z,11.09
2019-04-04T03:17:21.515Z,11.04
2019-04-04T03:19:53.300Z,10.97
2019-04-04T03:22:27.476Z,10.82
2019-04-04T03:24:58.658Z,10.83
2019-04-04T03:27:30.382Z,10.74
2019-04-04T03:30:02.754Z,10.90
2019-04-04T03:32:39.174Z,10.81
2019-04-04T03:35:12.282Z,10.81
2019-04-04T03:37:56.011Z,10.91
2019-04-04T03:40:27.730Z,10.87
2019-04-04T03:42:59.449Z,10.81
2019-04-04T03:45:31.362Z,10.86
2019-04-04T03:48:07.481Z,10.86
2019-04-04T03:50:39.051Z,10.77
2019-04-04T03:53:23.958Z,10.87
2019-04-04T03:55:59.951Z,10.90
2019-04-04T03:58:33.033Z,10.87
2019-04-04T04:01:04.711Z,10.75
2019-04-04T04:03:45.346Z,10.83
2019-04-04T04:06:17.983Z,10.79
2019-04-04T04:08:55.544Z,10.78
2019-04-04T04:11:27.180Z,10.72
2019-04-04T04:14:02.101Z,10.60
2019-04-04T04:16:36.000Z,10.85
2019-04-04T04:19:19.693Z,10.91
2019-04-04T04:21:51.244Z,11.07
2019-04-04T04:24:23.170Z,11.16
2019-04-04T04:26:54.856Z,11.18
2019-04-04T04:29:30.773Z,11.23
2019-04-04T04:32:02.502Z,11.27
2019-04-04T04:34:51.811Z,11.27
2019-04-04T04:37:23.321Z,11.40
2019-04-04T04:39:55.235Z,11.45
2019-04-04T04:42:27.559Z,11.50
2019-04-04T04:45:12.168Z,11.50
2019-04-04T04:47:44.640Z,11.53
2019-04-04T04:50:16.426Z,11.48
2019-04-04T04:52:48.411Z,11.52
2019-04-04T04:55:28.151Z,11.66
2019-04-04T04:57:59.864Z,11.63
2019-04-04T05:00:34.534Z,11.64
2019-04-04T05:03:06.477Z,11.61
2019-04-04T05:05:45.774Z,11.67
2019-04-04T05:08:18.150Z,11.73
2019-04-04T05:10:56.138Z,11.71
2019-04-04T05:13:28.843Z,11.72
2019-04-04T05:16:08.987Z,11.75
2019-04-04T05:18:41.279Z,11.74
2019-04-04T05:21:24.844Z,11.82
2019-04-04T05:23:53.001Z,11.86
2019-04-04T05:26:28.788Z,11.88
2019-04-04T05:29:00.503Z,12.11
2019-04-04T05:31:41.422Z,12.05
2019-04-04T05:34:14.315Z,12.01
2019-04-04T05:36:49.343Z,12.10
2019-04-04T05:39:21.196Z,12.07
2019-04-04T05:42:00.481Z,12.02
2019-04-04T05:44:34.557Z,12.03
2019-04-04T05:47:13.720Z,12.02
2019-04-04T05:49:45.546Z,12.05
2019-04-04T05:52:21.486Z,12.01
2019-04-04T05:54:53.488Z,12.11
2019-04-04T05:57:27.933Z,12.06
2019-04-04T06:00:18.660Z,12.18
2019-04-04T06:02:50.659Z,12.07
2019-04-04T06:05:22.624Z,12.20
2019-04-04T06:07:55.171Z,12.31
2019-04-04T06:10:26.880Z,12.47
2019-04-04T06:12:58.732Z,12.46
2019-04-04T06:15:32.180Z,12.58
2019-04-04T06:18:15.293Z,12.57
2019-04-04T06:20:48.592Z,12.58
2019-04-04T06:23:25.100Z,12.44
2019-04-04T06:25:58.074Z,12.36
2019-04-04T06:28:34.986Z,12.47
2019-04-04T06:31:07.012Z,12.44
2019-04-04T06:33:46.554Z,12.56
2019-04-04T06:36:19.188Z,12.71
2019-04-04T06:38:53.963Z,13.20
2019-04-04T06:41:28.211Z,13.41
2019-04-04T06:44:02.899Z,13.55
2019-04-04T06:46:35.146Z,13.72
2019-04-04T06:49:15.619Z,13.27
2019-04-04T06:51:47.667Z,13.18
2019-04-04T06:54:26.466Z,12.92
2019-04-04T06:56:59.255Z,13.11
2019-04-04T06:59:31.462Z,13.14
2019-04-04T07:02:10.132Z,13.11
2019-04-04T07:04:45.112Z,13.24
2019-04-04T07:07:16.985Z,13.41
2019-04-04T07:09:56.323Z,13.49
2019-04-04T07:12:28.738Z,13.62
2019-04-04T07:15:11.142Z,13.55
2019-04-04T07:17:41.867Z,13.46
2019-04-04T07:20:17.562Z,13.64
2019-04-04T07:22:55.628Z,13.70
2019-04-04T07:25:27.704Z,13.93
2019-04-04T07:28:00.813Z,13.77
2019-04-04T07:30:36.077Z,13.57
2019-04-04T07:33:08.051Z,13.94
2019-04-04T07:35:49.571Z,14.10
2019-04-04T07:38:22.089Z,13.97
2019-04-04T07:41:00.991Z,14.23
2019-04-04T07:43:32.826Z,14.26
2019-04-04T07:46:16.362Z,14.19
2019-04-04T07:48:42.739Z,14.05
2019-04-04T07:51:23.965Z,13.87
2019-04-04T07:53:55.887Z,13.83
2019-04-04T07:56:27.541Z,13.87
2019-04-04T07:58:59.341Z,13.90
2019-04-04T08:01:51.254Z,13.93
2019-04-04T08:04:22.935Z,13.93
2019-04-04T08:06:55.129Z,14.01
2019-04-04T08:09:27.859Z,14.00
2019-04-04T08:11:59.917Z,14.49
2019-04-04T08:14:32.513Z,16.55
2019-04-04T08:17:12.841Z,17.89
2019-04-04T08:19:45.160Z,17.97
2019-04-04T08:22:28.742Z,17.48
2019-04-04T08:24:58.268Z,18.36
2019-04-04T08:27:29.975Z,18.09
2019-04-04T08:30:01.871Z,17.80
2019-04-04T08:32:40.143Z,18.01
2019-04-04T08:35:12.626Z,16.97
2019-04-04T08:37:54.177Z,16.95
2019-04-04T08:40:28.103Z,18.71
2019-04-04T08:43:00.082Z,18.54
2019-04-04T08:45:31.988Z,17.09
2019-04-04T08:48:07.831Z,16.53
2019-04-04T08:50:39.588Z,16.31
2019-04-04T08:53:19.152Z,15.92
2019-04-04T08:55:51.050Z,15.50
2019-04-04T08:58:40.669Z,15.42
2019-04-04T09:01:12.419Z,15.39
2019-04-04T09:03:47.012Z,15.45
2019-04-04T09:06:19.556Z,15.42
2019-04-04T09:08:51.846Z,15.37
2019-04-04T09:11:24.270Z,15.58
2019-04-04T09:14:00.275Z,15.49
2019-04-04T09:16:33.446Z,15.46
2019-04-04T09:19:23.219Z,15.16
2019-04-04T09:21:55.396Z,15.01
2019-04-04T09:24:27.750Z,14.55
2019-04-04T09:27:00.091Z,13.89
2019-04-04T09:29:38.194Z,13.55
2019-04-04T09:32:11.211Z,13.44
2019-04-04T09:34:51.147Z,13.65
2019-04-04T09:37:23.660Z,13.97
2019-04-04T09:39:56.486Z,14.31
2019-04-04T09:42:28.451Z,14.59
2019-04-04T09:45:12.525Z,14.72
2019-04-04T09:47:45.713Z,14.65
2019-04-04T09:50:17.704Z,14.68
2019-04-04T09:52:49.782Z,14.57
2019-04-04T09:55:31.813Z,14.43
2019-04-04T09:58:04.409Z,13.65
2019-04-04T10:00:37.529Z,12.93
2019-04-04T10:03:09.577Z,12.60
2019-04-04T10:05:48.470Z,12.53
2019-04-04T10:08:20.731Z,12.38
2019-04-04T10:10:59.672Z,12.35
2019-04-04T10:13:31.452Z,12.30
2019-04-04T10:16:06.294Z,12.42
2019-04-04T10:18:38.048Z,12.45
2019-04-04T10:21:19.617Z,12.61
2019-04-04T10:23:52.382Z,12.76
2019-04-04T10:26:33.433Z,13.09
2019-04-04T10:29:05.160Z,13.20
2019-04-04T10:31:41.578Z,13.27
2019-04-04T10:34:14.605Z,12.99
2019-04-04T10:36:52.708Z,12.83
2019-04-04T10:39:29.043Z,12.44
2019-04-04T10:41:58.359Z,12.09
2019-04-04T10:44:30.664Z,11.89
2019-04-04T10:47:12.834Z,11.78
2019-04-04T10:49:45.055Z,11.80
2019-04-04T10:52:24.686Z,11.80
2019-04-04T10:55:03.097Z,11.79
2019-04-04T10:57:35.807Z,11.77
2019-04-04T11:00:10.819Z,11.81
2019-04-04T11:02:46.872Z,12.05
2019-04-04T11:05:21.327Z,12.19
2019-04-04T11:07:56.638Z,12.33
2019-04-04T11:10:27.488Z,12.46
2019-04-04T11:13:03.713Z,12.58
2019-04-04T11:15:35.550Z,12.89
2019-04-04T11:18:10.408Z,13.09
2019-04-04T11:20:42.905Z,13.03
2019-04-04T11:23:23.011Z,12.98
2019-04-04T11:25:54.907Z,12.87
2019-04-04T11:28:31.126Z,13.03
2019-04-04T11:31:02.994Z,12.92
2019-04-04T11:33:52.535Z,12.51
2019-04-04T11:36:24.157Z,12.35
2019-04-04T11:38:56.773Z,12.18
2019-04-04T11:41:28.468Z,12.08
2019-04-04T11:44:08.733Z,12.05
2019-04-04T11:46:42.168Z,11.94
2019-04-04T11:49:13.884Z,11.86
2019-04-04T11:51:45.814Z,11.81
2019-04-04T11:54:22.081Z,11.73
2019-04-04T11:56:54.142Z,11.65
2019-04-04T11:59:44.081Z,11.50
2019-04-04T12:02:16.751Z,11.44
2019-04-04T12:04:48.705Z,11.37
2019-04-04T12:07:20.782Z,11.30
2019-04-04T12:09:52.629Z,11.27
2019-04-04T12:12:24.532Z,11.32
2019-04-04T12:15:13.971Z,11.36
2019-04-04T12:17:46.661Z,11.34
2019-04-04T12:20:19.491Z,11.37
2019-04-04T12:22:53.480Z,11.36
2019-04-04T12:25:28.046Z,11.25
2019-04-04T12:28:01.627Z,11.11
2019-04-04T12:30:37.688Z,11.15
2019-04-04T12:33:09.985Z,11.12
2019-04-04T12:35:45.201Z,11.10
2019-04-04T12:38:18.387Z,11.00
2019-04-04T12:41:00.044Z,10.96
2019-04-04T12:43:32.353Z,10.90
2019-04-04T12:46:12.672Z,10.82
2019-04-04T12:48:46.084Z,10.83
2019-04-04T12:51:17.955Z,10.83
2019-04-04T12:53:50.376Z,10.87
2019-04-04T12:56:30.266Z,10.89
2019-04-04T12:59:02.682Z,10.90
2019-04-04T13:01:38.434Z,10.95
2019-04-04T13:04:10.299Z,10.91
2019-04-04T13:06:52.046Z,10.97
2019-04-04T13:09:24.398Z,10.91
2019-04-04T13:11:56.948Z,10.94
2019-04-04T13:14:30.358Z,11.00
2019-04-04T13:17:15.409Z,11.08
2019-04-04T13:19:47.417Z,11.19
2019-04-04T13:22:21.966Z,11.30
2019-04-04T13:24:54.295Z,11.36
2019-04-04T13:27:36.046Z,11.34
2019-04-04T13:30:11.275Z,11.28
2019-04-04T13:32:48.700Z,11.36
2019-04-04T13:35:20.893Z,11.37
2019-04-04T13:37:54.046Z,11.38
2019-04-04T13:40:28.934Z,11.38
2019-04-04T13:43:01.189Z,11.34
2019-04-04T13:45:33.844Z,11.37
2019-04-04T13:48:06.493Z,11.31
2019-04-04T13:50:38.441Z,11.32
2019-04-04T13:53:10.563Z,11.28
2019-04-04T13:55:42.810Z,11.22
2019-04-04T13:58:17.451Z,11.17
2019-04-04T14:00:49.450Z,11.10
2019-04-04T14:03:21.711Z,11.08
2019-04-04T14:05:54.038Z,11.12
2019-04-04T14:08:26.705Z,11.13
2019-04-04T14:10:58.844Z,11.19
2019-04-04T14:13:31.411Z,11.19
2019-04-04T14:16:03.874Z,11.21
2019-04-04T14:18:39.752Z,11.26
2019-04-04T14:21:09.842Z,11.24
2019-04-04T14:23:45.188Z,11.33
2019-04-04T14:26:16.086Z,11.25
2019-04-04T14:28:48.944Z,11.41
2019-04-04T14:31:21.083Z,11.47
2019-04-04T14:33:53.826Z,11.53
2019-04-04T14:36:30.412Z,11.60
2019-04-04T14:39:02.339Z,11.70
2019-04-04T14:41:53.368Z,11.76
2019-04-04T14:44:25.480Z,11.84
2019-04-04T14:47:00.770Z,11.76
2019-04-04T14:49:33.779Z,11.81
2019-04-04T14:52:09.216Z,11.77
2019-04-04T14:54:41.761Z,11.77
2019-04-04T14:57:13.951Z,11.75
2019-04-04T14:59:46.283Z,11.72
2019-04-04T15:02:28.276Z,11.65
2019-04-04T15:05:01.870Z,11.63
2019-04-04T15:07:40.412Z,11.70
2019-04-04T15:10:13.321Z,11.69
2019-04-04T15:12:48.200Z,11.66
2019-04-04T15:15:21.079Z,11.73
2019-04-04T15:17:59.520Z,11.68
2019-04-04T15:20:31.354Z,11.74
2019-04-04T15:23:07.624Z,11.79
2019-04-04T15:25:40.034Z,11.86
2019-04-04T15:28:17.736Z,11.83
2019-04-04T15:30:50.226Z,11.76
2019-04-04T15:33:22.322Z,11.76
2019-04-04T15:35:54.630Z,11.68
2019-04-04T15:38:26.786Z,11.70
2019-04-04T15:40:59.594Z,11.68
2019-04-04T15:43:32.370Z,11.73
2019-04-04T15:46:04.672Z,11.76
2019-04-04T15:48:37.332Z,11.78
2019-04-04T15:51:09.642Z,11.80
2019-04-04T15:53:42.790Z,11.87
2019-04-04T15:56:15.690Z,11.85
2019-04-04T15:58:47.806Z,11.89
2019-04-04T16:01:20.328Z,11.93
2019-04-04T16:03:52.647Z,11.96
2019-04-04T16:06:25.106Z,12.00
2019-04-04T16:08:59.428Z,12.03
2019-04-04T16:11:31.832Z,12.02
2019-04-04T16:14:05.837Z,11.96
2019-04-04T16:16:40.402Z,11.95
2019-04-04T16:19:13.254Z,11.87
2019-04-04T16:21:46.335Z,11.84
2019-04-04T16:24:18.391Z,11.83
2019-04-04T16:26:50.562Z,11.84
2019-04-04T16:29:23.084Z,11.83
2019-04-04T16:31:55.666Z,11.78
2019-04-04T16:34:28.196Z,11.83
2019-04-04T16:37:00.871Z,11.80
2019-04-04T16:39:35.358Z,11.79
2019-04-04T16:42:06.911Z,11.80
2019-04-04T16:44:40.292Z,11.81
2019-04-04T16:47:13.038Z,11.82
2019-04-04T16:49:46.461Z,11.74
2019-04-04T16:52:19.202Z,11.77
2019-04-04T16:54:53.574Z,11.72
2019-04-04T16:57:26.504Z,11.76
2019-04-04T16:59:58.825Z,11.77
2019-04-04T17:02:30.884Z,11.70
2019-04-04T17:05:03.435Z,11.70
2019-04-04T17:07:35.889Z,11.69
2019-04-04T17:10:10.144Z,11.68
2019-04-04T17:12:42.815Z,11.61
2019-04-04T17:15:15.786Z,11.59
2019-04-04T17:17:48.899Z,11.64
2019-04-04T17:20:21.339Z,11.64
2019-04-04T17:22:53.245Z,11.60
2019-04-04T17:25:26.305Z,11.66
2019-04-04T17:27:59.891Z,11.69
2019-04-04T17:30:32.340Z,11.61
2019-04-04T17:33:04.898Z,11.61
2019-04-04T17:35:37.499Z,11.59
2019-04-04T17:38:10.067Z,11.52
2019-04-04T17:40:42.505Z,11.53
2019-04-04T17:43:15.113Z,9.85
2019-04-04T17:45:49.380Z,8.94
2019-04-04T17:48:22.371Z,8.40
2019-04-04T17:50:55.132Z,8.12
2019-04-04T17:53:27.535Z,7.98
2019-04-04T17:56:08.567Z,7.85
2019-04-04T17:58:40.740Z,7.73
2019-04-04T18:01:16.002Z,7.57
2019-04-04T18:03:48.075Z,7.55
2019-04-04T18:06:20.064Z,7.56
2019-04-04T18:08:52.726Z,7.52
2019-04-04T18:11:33.168Z,7.55
2019-04-04T18:14:05.355Z,7.52
2019-04-04T18:16:48.587Z,7.47
2019-04-04T18:19:21.302Z,7.35
2019-04-04T18:21:56.772Z,7.37
2019-04-04T18:24:29.943Z,7.26
2019-04-04T18:27:05.874Z,7.29
2019-04-04T18:29:39.233Z,7.24
2019-04-04T18:32:21.485Z,7.19
2019-04-04T18:34:59.536Z,7.19
2019-04-04T18:37:32.274Z,6.99
2019-04-04T18:40:05.505Z,6.92
2019-04-04T18:42:38.128Z,6.75
2019-04-04T18:45:11.544Z,6.57
2019-04-04T18:47:44.137Z,6.36
2019-04-04T18:50:16.610Z,6.21
2019-04-04T18:52:53.310Z,5.98
2019-04-04T18:55:25.696Z,5.70
2019-04-04T18:58:04.419Z,5.62
2019-04-04T19:00:39.529Z,5.59
2019-04-04T19:03:22.428Z,5.44
2019-04-04T19:05:55.722Z,5.40
2019-04-04T19:08:28.013Z,5.27
2019-04-04T19:11:01.943Z,5.16
2019-04-04T19:13:44.122Z,5.13
2019-04-04T19:16:09.933Z,5.06
2019-04-04T19:18:49.617Z,5.10
2019-04-04T19:21:22.937Z,5.01
2019-04-04T19:24:02.817Z,5.05
2019-04-04T19:26:34.832Z,4.98
2019-04-04T19:29:07.721Z,4.89
2019-04-04T19:31:39.788Z,4.85
2019-04-04T19:34:21.240Z,4.82
2019-04-04T19:36:55.043Z,4.79
2019-04-04T19:39:35.155Z,4.78
2019-04-04T19:42:08.267Z,4.87
2019-04-04T19:44:53.184Z,4.78
2019-04-04T19:47:18.267Z,4.85
2019-04-04T19:49:50.865Z,4.82
2019-04-04T19:52:23.053Z,4.91
2019-04-04T19:55:02.738Z,4.93
2019-04-04T19:57:35.637Z,4.85
2019-04-04T20:00:09.971Z,4.86
2019-04-04T20:02:44.002Z,4.80
2019-04-04T20:05:24.185Z,4.72
2019-04-04T20:07:58.094Z,4.71
2019-04-04T20:10:30.494Z,4.77
2019-04-04T20:13:02.582Z,4.79
2019-04-04T20:15:43.135Z,4.80
2019-04-04T20:18:15.912Z,4.82
2019-04-04T20:20:52.121Z,4.82
2019-04-04T20:23:24.562Z,4.85
2019-04-04T20:25:59.438Z,4.81
2019-04-04T20:28:31.740Z,4.85
2019-04-04T20:31:12.885Z,4.82
2019-04-04T20:33:45.971Z,4.82
2019-04-04T20:36:24.332Z,4.85
2019-04-04T20:38:56.609Z,4.82
2019-04-04T20:41:32.913Z,4.86
2019-04-04T20:44:06.716Z,4.85
2019-04-04T20:46:41.996Z,4.81
2019-04-04T20:49:14.191Z,4.82
2019-04-04T20:52:00.746Z,4.82
2019-04-04T20:54:33.048Z,4.78
2019-04-04T20:57:05.716Z,4.79
2019-04-04T20:59:38.093Z,4.80
2019-04-04T21:02:19.535Z,4.82
2019-04-04T21:04:54.201Z,4.83
2019-04-04T21:07:26.121Z,4.90
2019-04-04T21:10:00.735Z,4.94
2019-04-04T21:12:36.038Z,4.96
2019-04-04T21:15:09.300Z,4.96
2019-04-04T21:17:48.351Z,4.93
2019-04-04T21:20:20.777Z,4.94
2019-04-04T21:22:58.582Z,4.92
2019-04-04T21:25:31.055Z,4.93
2019-04-04T21:28:10.537Z,4.95
2019-04-04T21:30:42.981Z,4.94
2019-04-04T21:33:15.102Z,4.97
2019-04-04T21:35:47.490Z,4.97
2019-04-04T21:38:28.755Z,5.00
2019-04-04T21:41:00.560Z,5.00
2019-04-04T21:43:39.523Z,5.00
2019-04-04T21:46:11.847Z,5.03
2019-04-04T21:48:46.816Z,5.10
2019-04-04T21:51:19.246Z,5.06
2019-04-04T21:53:58.578Z,5.06
2019-04-04T21:56:33.720Z,5.02
2019-04-04T21:59:11.892Z,5.11
2019-04-04T22:01:44.288Z,5.03
2019-04-04T22:04:16.419Z,5.01
2019-04-04T22:06:48.849Z,4.98
2019-04-04T22:09:27.217Z,4.96
2019-04-04T22:11:59.949Z,4.95
2019-04-04T22:14:40.380Z,4.95
2019-04-04T22:17:12.407Z,4.96
2019-04-04T22:19:47.549Z,5.01
2019-04-04T22:22:19.751Z,5.06
2019-04-04T22:24:57.600Z,5.08
2019-04-04T22:27:29.424Z,5.16
2019-04-04T22:30:06.015Z,5.09
2019-04-04T22:32:38.415Z,5.01
2019-04-04T22:35:23.156Z,4.90
2019-04-04T22:37:54.919Z,4.79
2019-04-04T22:40:33.011Z,4.65
2019-04-04T22:43:04.805Z,4.51
2019-04-04T22:45:39.822Z,4.40
2019-04-04T22:48:11.754Z,4.38
2019-04-04T22:50:57.095Z,4.28
2019-04-04T22:53:28.881Z,4.38
2019-04-04T22:56:04.132Z,4.35
2019-04-04T22:58:36.098Z,4.17
2019-04-04T23:01:10.706Z,3.90
2019-04-04T23:03:42.953Z,3.81
2019-04-04T23:06:14.756Z,3.93
2019-04-04T23:08:46.466Z,3.85
2019-04-04T23:11:18.423Z,3.90
2019-04-04T23:13:50.083Z,3.87
2019-04-04T23:16:21.899Z,3.91
2019-04-04T23:18:53.746Z,3.99
2019-04-04T23:21:25.484Z,3.93
2019-04-04T23:23:59.090Z,3.81
2019-04-04T23:26:30.866Z,3.74
2019-04-04T23:29:02.791Z,3.79
2019-04-04T23:31:34.736Z,3.74
2019-04-04T23:34:07.570Z,3.68
2019-04-04T23:36:39.646Z,3.66
2019-04-04T23:39:11.806Z,3.49
2019-04-04T23:41:44.413Z,3.29
2019-04-04T23:44:16.390Z,3.22
2019-04-04T23:46:51.953Z,3.25
2019-04-04T23:49:23.796Z,3.31
2019-04-04T23:52:03.217Z,3.12
2019-04-04T23:54:34.922Z,3.10
2019-04-04T23:57:07.862Z,3.03
2019-04-04T23:59:39.743Z,3.17
